sensor_id;sensor_type;location;lat;lon;timestamp;P1;durP1;ratioP1;P2;durP2;ratioP2
29240;SDS011;16268;49.880;8.648;2023-04-24T00:00:54;4.18;;;1.23;;
29240;SDS011;16268;49.880;8.648;2023-04-24T00:03:21;3.72;;;1.08;;
29240;SDS011;16268;49.880;8.648;2023-04-24T00:05:48;2.70;;;1.00;;
29240;SDS011;16268;49.880;8.648;2023-04-24T00:08:13;4.80;;;1.00;;
29240;SDS011;16268;49.880;8.648;2023-04-24T00:10:39;2.35;;;0.85;;
29240;SDS011;16268;49.880;8.648;2023-04-24T00:13:04;2.70;;;1.02;;
29240;SDS011;16268;49.880;8.648;2023-04-24T00:15:30;3.90;;;1.00;;
29240;SDS011;16268;49.880;8.648;2023-04-24T00:17:56;3.35;;;1.00;;
29240;SDS011;16268;49.880;8.648;2023-04-24T00:20:22;3.53;;;0.95;;
29240;SDS011;16268;49.880;8.648;2023-04-24T00:22:47;3.20;;;1.30;;
29240;SDS011;16268;49.880;8.648;2023-04-24T00:25:13;2.55;;;0.82;;
29240;SDS011;16268;49.880;8.648;2023-04-24T00:27:38;2.47;;;0.93;;
29240;SDS011;16268;49.880;8.648;2023-04-24T00:30:04;2.83;;;1.10;;
29240;SDS011;16268;49.880;8.648;2023-04-24T00:32:31;3.97;;;1.20;;
29240;SDS011;16268;49.880;8.648;2023-04-24T00:34:56;4.30;;;1.00;;
29240;SDS011;16268;49.880;8.648;2023-04-24T00:37:23;2.33;;;0.90;;
29240;SDS011;16268;49.880;8.648;2023-04-24T00:39:48;2.47;;;0.90;;
29240;SDS011;16268;49.880;8.648;2023-04-24T00:42:14;2.42;;;0.90;;
29240;SDS011;16268;49.880;8.648;2023-04-24T00:44:40;4.25;;;1.10;;
29240;SDS011;16268;49.880;8.648;2023-04-24T00:47:05;3.00;;;1.00;;
29240;SDS011;16268;49.880;8.648;2023-04-24T00:49:31;3.88;;;1.10;;
29240;SDS011;16268;49.880;8.648;2023-04-24T00:51:57;3.05;;;1.00;;
29240;SDS011;16268;49.880;8.648;2023-04-24T00:54:24;2.97;;;1.00;;
29240;SDS011;16268;49.880;8.648;2023-04-24T00:56:50;3.33;;;1.05;;
29240;SDS011;16268;49.880;8.648;2023-04-24T00:59:16;5.18;;;1.08;;
29240;SDS011;16268;49.880;8.648;2023-04-24T01:01:43;3.38;;;1.15;;
29240;SDS011;16268;49.880;8.648;2023-04-24T01:04:09;4.35;;;1.27;;
29240;SDS011;16268;49.880;8.648;2023-04-24T01:12:50;3.97;;;1.20;;
29240;SDS011;16268;49.880;8.648;2023-04-24T01:15:16;4.22;;;0.98;;
29240;SDS011;16268;49.880;8.648;2023-04-24T01:17:42;4.25;;;1.13;;
29240;SDS011;16268;49.880;8.648;2023-04-24T01:20:07;3.15;;;1.00;;
29240;SDS011;16268;49.880;8.648;2023-04-24T01:22:34;4.53;;;1.30;;
29240;SDS011;16268;49.880;8.648;2023-04-24T01:24:59;4.95;;;1.10;;
29240;SDS011;16268;49.880;8.648;2023-04-24T01:27:25;3.30;;;1.10;;
29240;SDS011;16268;49.880;8.648;2023-04-24T01:29:51;2.38;;;0.73;;
29240;SDS011;16268;49.880;8.648;2023-04-24T01:32:16;2.95;;;1.10;;
29240;SDS011;16268;49.880;8.648;2023-04-24T01:34:43;4.65;;;1.42;;
29240;SDS011;16268;49.880;8.648;2023-04-24T01:37:10;5.53;;;1.30;;
29240;SDS011;16268;49.880;8.648;2023-04-24T01:39:35;4.55;;;1.10;;
29240;SDS011;16268;49.880;8.648;2023-04-24T01:42:01;4.47;;;1.15;;
29240;SDS011;16268;49.880;8.648;2023-04-24T01:44:27;3.95;;;1.15;;
29240;SDS011;16268;49.880;8.648;2023-04-24T01:46:53;3.90;;;1.27;;
29240;SDS011;16268;49.880;8.648;2023-04-24T01:49:20;3.97;;;1.20;;
29240;SDS011;16268;49.880;8.648;2023-04-24T01:51:45;3.95;;;1.00;;
29240;SDS011;16268;49.880;8.648;2023-04-24T01:54:11;3.85;;;1.30;;
29240;SDS011;16268;49.880;8.648;2023-04-24T01:56:37;3.05;;;1.13;;
29240;SDS011;16268;49.880;8.648;2023-04-24T01:59:06;3.38;;;1.08;;
29240;SDS011;16268;49.880;8.648;2023-04-24T02:01:34;3.58;;;1.00;;
29240;SDS011;16268;49.880;8.648;2023-04-24T02:04:01;3.03;;;0.90;;
29240;SDS011;16268;49.880;8.648;2023-04-24T02:06:26;5.45;;;1.23;;
29240;SDS011;16268;49.880;8.648;2023-04-24T02:08:52;4.13;;;1.00;;
29240;SDS011;16268;49.880;8.648;2023-04-24T02:11:18;2.97;;;1.27;;
29240;SDS011;16268;49.880;8.648;2023-04-24T02:13:43;3.30;;;1.17;;
29240;SDS011;16268;49.880;8.648;2023-04-24T02:16:09;4.75;;;1.33;;
29240;SDS011;16268;49.880;8.648;2023-04-24T02:18:35;4.55;;;1.10;;
29240;SDS011;16268;49.880;8.648;2023-04-24T02:21:00;3.50;;;1.13;;
29240;SDS011;16268;49.880;8.648;2023-04-24T02:23:26;4.68;;;1.60;;
29240;SDS011;16268;49.880;8.648;2023-04-24T02:25:52;4.25;;;1.05;;
29240;SDS011;16268;49.880;8.648;2023-04-24T02:28:18;3.85;;;1.42;;
29240;SDS011;16268;49.880;8.648;2023-04-24T02:30:44;3.38;;;1.10;;
29240;SDS011;16268;49.880;8.648;2023-04-24T02:33:10;4.28;;;1.20;;
29240;SDS011;16268;49.880;8.648;2023-04-24T02:35:36;3.30;;;1.20;;
29240;SDS011;16268;49.880;8.648;2023-04-24T02:38:02;4.00;;;1.10;;
29240;SDS011;16268;49.880;8.648;2023-04-24T02:40:28;3.03;;;1.30;;
29240;SDS011;16268;49.880;8.648;2023-04-24T02:42:54;4.05;;;1.35;;
29240;SDS011;16268;49.880;8.648;2023-04-24T02:45:20;4.28;;;1.30;;
29240;SDS011;16268;49.880;8.648;2023-04-24T02:47:45;4.50;;;1.25;;
29240;SDS011;16268;49.880;8.648;2023-04-24T02:50:11;4.45;;;1.52;;
29240;SDS011;16268;49.880;8.648;2023-04-24T02:52:36;5.15;;;1.50;;
29240;SDS011;16268;49.880;8.648;2023-04-24T02:55:02;4.03;;;1.15;;
29240;SDS011;16268;49.880;8.648;2023-04-24T02:57:27;4.15;;;1.30;;
29240;SDS011;16268;49.880;8.648;2023-04-24T02:59:53;4.50;;;1.58;;
29240;SDS011;16268;49.880;8.648;2023-04-24T03:02:18;3.58;;;1.70;;
29240;SDS011;16268;49.880;8.648;2023-04-24T03:04:45;5.03;;;1.52;;
29240;SDS011;16268;49.880;8.648;2023-04-24T03:07:12;5.30;;;1.50;;
29240;SDS011;16268;49.880;8.648;2023-04-24T03:09:39;3.70;;;1.33;;
29240;SDS011;16268;49.880;8.648;2023-04-24T03:12:05;3.30;;;1.30;;
29240;SDS011;16268;49.880;8.648;2023-04-24T03:14:30;6.75;;;1.42;;
29240;SDS011;16268;49.880;8.648;2023-04-24T03:16:56;3.33;;;1.40;;
29240;SDS011;16268;49.880;8.648;2023-04-24T03:19:22;3.40;;;1.50;;
29240;SDS011;16268;49.880;8.648;2023-04-24T03:21:47;4.10;;;1.40;;
29240;SDS011;16268;49.880;8.648;2023-04-24T03:24:13;5.53;;;1.52;;
29240;SDS011;16268;49.880;8.648;2023-04-24T03:26:39;4.68;;;1.50;;
29240;SDS011;16268;49.880;8.648;2023-04-24T03:29:04;5.20;;;1.63;;
29240;SDS011;16268;49.880;8.648;2023-04-24T03:31:30;5.53;;;1.50;;
29240;SDS011;16268;49.880;8.648;2023-04-24T03:33:55;3.53;;;1.20;;
29240;SDS011;16268;49.880;8.648;2023-04-24T03:36:21;4.43;;;1.30;;
29240;SDS011;16268;49.880;8.648;2023-04-24T03:38:46;3.75;;;1.50;;
29240;SDS011;16268;49.880;8.648;2023-04-24T03:41:12;5.20;;;1.45;;
29240;SDS011;16268;49.880;8.648;2023-04-24T03:43:37;2.75;;;1.35;;
29240;SDS011;16268;49.880;8.648;2023-04-24T03:46:04;4.18;;;1.50;;
29240;SDS011;16268;49.880;8.648;2023-04-24T03:48:29;3.03;;;1.48;;
29240;SDS011;16268;49.880;8.648;2023-04-24T03:50:55;3.67;;;1.65;;
29240;SDS011;16268;49.880;8.648;2023-04-24T03:53:20;6.10;;;1.42;;
29240;SDS011;16268;49.880;8.648;2023-04-24T03:55:46;3.83;;;1.50;;
29240;SDS011;16268;49.880;8.648;2023-04-24T03:58:12;4.22;;;1.50;;
29240;SDS011;16268;49.880;8.648;2023-04-24T04:00:39;6.80;;;1.88;;
29240;SDS011;16268;49.880;8.648;2023-04-24T04:03:05;4.03;;;1.52;;
29240;SDS011;16268;49.880;8.648;2023-04-24T04:05:31;6.13;;;1.60;;
29240;SDS011;16268;49.880;8.648;2023-04-24T04:07:56;4.38;;;1.65;;
29240;SDS011;16268;49.880;8.648;2023-04-24T04:10:22;5.72;;;1.70;;
29240;SDS011;16268;49.880;8.648;2023-04-24T04:12:47;5.25;;;1.70;;
29240;SDS011;16268;49.880;8.648;2023-04-24T04:15:13;3.45;;;1.77;;
29240;SDS011;16268;49.880;8.648;2023-04-24T04:17:39;3.30;;;1.77;;
29240;SDS011;16268;49.880;8.648;2023-04-24T04:20:04;4.07;;;1.77;;
29240;SDS011;16268;49.880;8.648;2023-04-24T04:22:39;6.05;;;1.90;;
29240;SDS011;16268;49.880;8.648;2023-04-24T04:25:05;4.20;;;1.92;;
29240;SDS011;16268;49.880;8.648;2023-04-24T04:27:31;5.85;;;2.10;;
29240;SDS011;16268;49.880;8.648;2023-04-24T04:30:00;4.95;;;2.22;;
29240;SDS011;16268;49.880;8.648;2023-04-24T04:32:29;5.82;;;2.50;;
29240;SDS011;16268;49.880;8.648;2023-04-24T04:34:59;4.55;;;2.10;;
29240;SDS011;16268;49.880;8.648;2023-04-24T04:37:34;6.15;;;2.22;;
29240;SDS011;16268;49.880;8.648;2023-04-24T04:40:00;4.95;;;2.20;;
29240;SDS011;16268;49.880;8.648;2023-04-24T04:42:31;3.67;;;2.15;;
29240;SDS011;16268;49.880;8.648;2023-04-24T04:44:57;4.18;;;2.45;;
29240;SDS011;16268;49.880;8.648;2023-04-24T04:47:23;4.05;;;2.28;;
29240;SDS011;16268;49.880;8.648;2023-04-24T04:49:49;5.00;;;2.25;;
29240;SDS011;16268;49.880;8.648;2023-04-24T04:52:16;6.32;;;2.38;;
29240;SDS011;16268;49.880;8.648;2023-04-24T04:54:42;3.95;;;2.30;;
29240;SDS011;16268;49.880;8.648;2023-04-24T04:57:08;4.88;;;2.63;;
29240;SDS011;16268;49.880;8.648;2023-04-24T04:59:34;4.63;;;2.58;;
29240;SDS011;16268;49.880;8.648;2023-04-24T05:02:00;5.50;;;2.80;;
29240;SDS011;16268;49.880;8.648;2023-04-24T05:04:25;4.07;;;2.70;;
29240;SDS011;16268;49.880;8.648;2023-04-24T05:06:51;5.85;;;2.67;;
29240;SDS011;16268;49.880;8.648;2023-04-24T05:09:17;4.82;;;2.50;;
29240;SDS011;16268;49.880;8.648;2023-04-24T05:11:43;4.28;;;2.60;;
29240;SDS011;16268;49.880;8.648;2023-04-24T05:14:08;6.20;;;2.65;;
29240;SDS011;16268;49.880;8.648;2023-04-24T05:16:34;4.97;;;2.70;;
29240;SDS011;16268;49.880;8.648;2023-04-24T05:19:01;4.50;;;2.40;;
29240;SDS011;16268;49.880;8.648;2023-04-24T05:21:27;3.65;;;2.10;;
29240;SDS011;16268;49.880;8.648;2023-04-24T05:23:52;4.38;;;2.42;;
29240;SDS011;16268;49.880;8.648;2023-04-24T05:26:18;4.55;;;2.20;;
29240;SDS011;16268;49.880;8.648;2023-04-24T05:28:44;4.43;;;2.00;;
29240;SDS011;16268;49.880;8.648;2023-04-24T05:31:10;6.05;;;2.30;;
29240;SDS011;16268;49.880;8.648;2023-04-24T05:33:37;4.90;;;2.10;;
29240;SDS011;16268;49.880;8.648;2023-04-24T05:36:02;3.15;;;2.08;;
29240;SDS011;16268;49.880;8.648;2023-04-24T05:38:28;5.20;;;2.20;;
29240;SDS011;16268;49.880;8.648;2023-04-24T05:40:54;5.65;;;2.33;;
29240;SDS011;16268;49.880;8.648;2023-04-24T05:43:20;4.28;;;2.45;;
29240;SDS011;16268;49.880;8.648;2023-04-24T05:45:45;4.70;;;2.50;;
29240;SDS011;16268;49.880;8.648;2023-04-24T05:48:14;5.90;;;2.33;;
29240;SDS011;16268;49.880;8.648;2023-04-24T05:50:39;4.25;;;2.00;;
29240;SDS011;16268;49.880;8.648;2023-04-24T05:53:05;4.95;;;2.03;;
29240;SDS011;16268;49.880;8.648;2023-04-24T05:55:32;5.43;;;2.08;;
29240;SDS011;16268;49.880;8.648;2023-04-24T05:57:57;3.20;;;1.67;;
29240;SDS011;16268;49.880;8.648;2023-04-24T06:00:24;4.75;;;1.75;;
29240;SDS011;16268;49.880;8.648;2023-04-24T06:02:50;4.80;;;1.90;;
29240;SDS011;16268;49.880;8.648;2023-04-24T06:05:16;5.88;;;2.00;;
29240;SDS011;16268;49.880;8.648;2023-04-24T06:07:42;4.45;;;1.67;;
29240;SDS011;16268;49.880;8.648;2023-04-24T06:10:08;4.18;;;2.13;;
29240;SDS011;16268;49.880;8.648;2023-04-24T06:12:34;4.30;;;2.05;;
29240;SDS011;16268;49.880;8.648;2023-04-24T06:15:00;4.68;;;1.80;;
29240;SDS011;16268;49.880;8.648;2023-04-24T06:17:25;3.78;;;2.08;;
29240;SDS011;16268;49.880;8.648;2023-04-24T06:19:51;3.47;;;1.98;;
29240;SDS011;16268;49.880;8.648;2023-04-24T06:22:16;4.80;;;1.90;;
29240;SDS011;16268;49.880;8.648;2023-04-24T06:24:42;4.38;;;2.17;;
29240;SDS011;16268;49.880;8.648;2023-04-24T06:27:08;4.75;;;2.20;;
29240;SDS011;16268;49.880;8.648;2023-04-24T06:29:33;4.03;;;2.03;;
29240;SDS011;16268;49.880;8.648;2023-04-24T06:31:59;7.68;;;2.83;;
29240;SDS011;16268;49.880;8.648;2023-04-24T06:34:24;6.43;;;2.38;;
29240;SDS011;16268;49.880;8.648;2023-04-24T06:36:50;8.25;;;2.35;;
29240;SDS011;16268;49.880;8.648;2023-04-24T06:39:16;4.97;;;2.42;;
29240;SDS011;16268;49.880;8.648;2023-04-24T06:41:42;4.63;;;2.38;;
29240;SDS011;16268;49.880;8.648;2023-04-24T06:44:07;4.60;;;2.35;;
29240;SDS011;16268;49.880;8.648;2023-04-24T06:46:33;4.15;;;2.42;;
29240;SDS011;16268;49.880;8.648;2023-04-24T06:48:59;4.80;;;2.35;;
29240;SDS011;16268;49.880;8.648;2023-04-24T06:51:25;4.93;;;2.42;;
29240;SDS011;16268;49.880;8.648;2023-04-24T06:53:52;6.10;;;3.22;;
29240;SDS011;16268;49.880;8.648;2023-04-24T06:56:18;4.88;;;2.80;;
29240;SDS011;16268;49.880;8.648;2023-04-24T06:58:45;5.90;;;2.95;;
29240;SDS011;16268;49.880;8.648;2023-04-24T07:01:11;7.00;;;3.20;;
29240;SDS011;16268;49.880;8.648;2023-04-24T07:03:36;21.27;;;4.68;;
29240;SDS011;16268;49.880;8.648;2023-04-24T07:06:02;6.72;;;3.38;;
29240;SDS011;16268;49.880;8.648;2023-04-24T07:08:29;6.43;;;3.20;;
29240;SDS011;16268;49.880;8.648;2023-04-24T07:10:55;7.47;;;3.60;;
29240;SDS011;16268;49.880;8.648;2023-04-24T07:13:21;5.40;;;3.33;;
29240;SDS011;16268;49.880;8.648;2023-04-24T07:15:47;5.68;;;3.17;;
29240;SDS011;16268;49.880;8.648;2023-04-24T07:18:15;5.68;;;3.17;;
29240;SDS011;16268;49.880;8.648;2023-04-24T07:20:41;7.50;;;3.55;;
29240;SDS011;16268;49.880;8.648;2023-04-24T07:23:07;7.13;;;3.42;;
29240;SDS011;16268;49.880;8.648;2023-04-24T07:25:33;5.80;;;3.55;;
29240;SDS011;16268;49.880;8.648;2023-04-24T07:27:59;7.95;;;3.60;;
29240;SDS011;16268;49.880;8.648;2023-04-24T07:30:24;7.40;;;3.67;;
29240;SDS011;16268;49.880;8.648;2023-04-24T07:32:50;6.13;;;3.60;;
29240;SDS011;16268;49.880;8.648;2023-04-24T07:35:16;7.90;;;4.00;;
29240;SDS011;16268;49.880;8.648;2023-04-24T07:37:42;6.13;;;4.05;;
29240;SDS011;16268;49.880;8.648;2023-04-24T07:40:11;8.00;;;3.78;;
29240;SDS011;16268;49.880;8.648;2023-04-24T07:42:37;5.85;;;3.80;;
29240;SDS011;16268;49.880;8.648;2023-04-24T07:45:03;5.80;;;4.03;;
29240;SDS011;16268;49.880;8.648;2023-04-24T07:47:29;6.90;;;4.03;;
29240;SDS011;16268;49.880;8.648;2023-04-24T07:49:56;6.53;;;3.55;;
29240;SDS011;16268;49.880;8.648;2023-04-24T07:52:21;7.47;;;3.78;;
29240;SDS011;16268;49.880;8.648;2023-04-24T07:54:47;6.30;;;3.45;;
29240;SDS011;16268;49.880;8.648;2023-04-24T07:57:12;8.20;;;3.70;;
29240;SDS011;16268;49.880;8.648;2023-04-24T07:59:38;6.40;;;3.72;;
29240;SDS011;16268;49.880;8.648;2023-04-24T08:02:04;9.90;;;4.15;;
29240;SDS011;16268;49.880;8.648;2023-04-24T08:04:31;5.72;;;2.72;;
29240;SDS011;16268;49.880;8.648;2023-04-24T08:06:56;5.13;;;2.13;;
29240;SDS011;16268;49.880;8.648;2023-04-24T08:09:22;3.63;;;2.00;;
29240;SDS011;16268;49.880;8.648;2023-04-24T08:11:47;3.25;;;1.35;;
29240;SDS011;16268;49.880;8.648;2023-04-24T08:14:13;4.18;;;1.38;;
29240;SDS011;16268;49.880;8.648;2023-04-24T08:16:40;4.80;;;1.35;;
29240;SDS011;16268;49.880;8.648;2023-04-24T08:19:05;6.43;;;1.98;;
29240;SDS011;16268;49.880;8.648;2023-04-24T08:21:31;3.50;;;1.50;;
29240;SDS011;16268;49.880;8.648;2023-04-24T08:23:57;3.15;;;1.65;;
29240;SDS011;16268;49.880;8.648;2023-04-24T08:26:22;5.00;;;1.52;;
29240;SDS011;16268;49.880;8.648;2023-04-24T08:28:48;9.30;;;1.80;;
29240;SDS011;16268;49.880;8.648;2023-04-24T08:31:14;7.28;;;2.25;;
29240;SDS011;16268;49.880;8.648;2023-04-24T08:33:40;4.35;;;1.95;;
29240;SDS011;16268;49.880;8.648;2023-04-24T08:36:06;4.90;;;1.85;;
29240;SDS011;16268;49.880;8.648;2023-04-24T08:38:32;4.05;;;1.90;;
29240;SDS011;16268;49.880;8.648;2023-04-24T08:40:59;4.50;;;1.45;;
29240;SDS011;16268;49.880;8.648;2023-04-24T08:43:26;4.18;;;1.80;;
29240;SDS011;16268;49.880;8.648;2023-04-24T08:45:52;5.57;;;1.95;;
29240;SDS011;16268;49.880;8.648;2023-04-24T08:48:20;3.70;;;1.90;;
29240;SDS011;16268;49.880;8.648;2023-04-24T08:50:48;5.03;;;1.85;;
29240;SDS011;16268;49.880;8.648;2023-04-24T08:53:16;5.38;;;1.80;;
29240;SDS011;16268;49.880;8.648;2023-04-24T08:55:43;4.10;;;2.03;;
29240;SDS011;16268;49.880;8.648;2023-04-24T08:58:10;4.03;;;2.05;;
29240;SDS011;16268;49.880;8.648;2023-04-24T09:00:36;6.40;;;2.30;;
29240;SDS011;16268;49.880;8.648;2023-04-24T09:03:04;4.47;;;2.20;;
29240;SDS011;16268;49.880;8.648;2023-04-24T09:05:31;4.35;;;1.98;;
29240;SDS011;16268;49.880;8.648;2023-04-24T09:07:57;5.82;;;2.20;;
29240;SDS011;16268;49.880;8.648;2023-04-24T09:10:26;4.05;;;2.10;;
29240;SDS011;16268;49.880;8.648;2023-04-24T09:12:53;4.53;;;2.38;;
29240;SDS011;16268;49.880;8.648;2023-04-24T09:15:20;5.25;;;2.35;;
29240;SDS011;16268;49.880;8.648;2023-04-24T09:17:46;4.78;;;2.20;;
29240;SDS011;16268;49.880;8.648;2023-04-24T09:20:12;3.78;;;2.00;;
29240;SDS011;16268;49.880;8.648;2023-04-24T09:22:37;4.35;;;2.25;;
29240;SDS011;16268;49.880;8.648;2023-04-24T09:25:04;4.28;;;2.03;;
29240;SDS011;16268;49.880;8.648;2023-04-24T09:27:32;5.25;;;2.30;;
29240;SDS011;16268;49.880;8.648;2023-04-24T09:29:59;4.53;;;2.78;;
29240;SDS011;16268;49.880;8.648;2023-04-24T09:32:26;5.70;;;2.08;;
29240;SDS011;16268;49.880;8.648;2023-04-24T09:35:05;4.95;;;2.17;;
29240;SDS011;16268;49.880;8.648;2023-04-24T09:37:46;4.80;;;2.10;;
29240;SDS011;16268;49.880;8.648;2023-04-24T09:40:15;5.30;;;2.30;;
29240;SDS011;16268;49.880;8.648;2023-04-24T09:42:52;5.72;;;2.10;;
29240;SDS011;16268;49.880;8.648;2023-04-24T09:45:19;5.80;;;2.10;;
29240;SDS011;16268;49.880;8.648;2023-04-24T09:47:45;3.00;;;1.70;;
29240;SDS011;16268;49.880;8.648;2023-04-24T09:50:12;3.65;;;1.85;;
29240;SDS011;16268;49.880;8.648;2023-04-24T09:52:45;4.57;;;1.90;;
29240;SDS011;16268;49.880;8.648;2023-04-24T09:55:17;3.92;;;2.20;;
29240;SDS011;16268;49.880;8.648;2023-04-24T09:57:51;4.70;;;2.13;;
29240;SDS011;16268;49.880;8.648;2023-04-24T10:00:21;4.88;;;2.00;;
29240;SDS011;16268;49.880;8.648;2023-04-24T10:03:01;3.72;;;1.95;;
29240;SDS011;16268;49.880;8.648;2023-04-24T10:05:37;4.65;;;1.50;;
29240;SDS011;16268;49.880;8.648;2023-04-24T10:10:34;4.53;;;1.70;;
29240;SDS011;16268;49.880;8.648;2023-04-24T10:13:03;3.72;;;1.58;;
29240;SDS011;16268;49.880;8.648;2023-04-24T10:15:30;3.78;;;1.67;;
29240;SDS011;16268;49.880;8.648;2023-04-24T10:17:57;4.75;;;1.90;;
29240;SDS011;16268;49.880;8.648;2023-04-24T10:20:24;3.33;;;1.73;;
29240;SDS011;16268;49.880;8.648;2023-04-24T10:22:53;3.55;;;1.98;;
29240;SDS011;16268;49.880;8.648;2023-04-24T10:25:26;3.72;;;2.03;;
29240;SDS011;16268;49.880;8.648;2023-04-24T10:27:54;4.25;;;1.92;;
29240;SDS011;16268;49.880;8.648;2023-04-24T10:30:24;3.97;;;2.15;;
29240;SDS011;16268;49.880;8.648;2023-04-24T10:32:54;3.80;;;2.10;;
29240;SDS011;16268;49.880;8.648;2023-04-24T10:35:22;4.28;;;2.22;;
29240;SDS011;16268;49.880;8.648;2023-04-24T10:37:56;5.22;;;2.10;;
29240;SDS011;16268;49.880;8.648;2023-04-24T10:40:30;4.43;;;2.13;;
29240;SDS011;16268;49.880;8.648;2023-04-24T10:42:58;3.97;;;2.17;;
29240;SDS011;16268;49.880;8.648;2023-04-24T10:45:24;5.70;;;2.03;;
29240;SDS011;16268;49.880;8.648;2023-04-24T10:47:57;3.70;;;1.67;;
29240;SDS011;16268;49.880;8.648;2023-04-24T10:50:27;3.33;;;1.63;;
29240;SDS011;16268;49.880;8.648;2023-04-24T10:53:12;5.18;;;2.53;;
29240;SDS011;16268;49.880;8.648;2023-04-24T10:58:06;3.40;;;1.80;;
29240;SDS011;16268;49.880;8.648;2023-04-24T11:00:31;5.13;;;2.03;;
29240;SDS011;16268;49.880;8.648;2023-04-24T11:02:57;4.07;;;2.05;;
29240;SDS011;16268;49.880;8.648;2023-04-24T11:05:49;4.18;;;2.10;;
29240;SDS011;16268;49.880;8.648;2023-04-24T11:08:30;4.13;;;2.22;;
29240;SDS011;16268;49.880;8.648;2023-04-24T11:11:13;4.50;;;2.00;;
29240;SDS011;16268;49.880;8.648;2023-04-24T11:19:07;5.65;;;2.45;;
29240;SDS011;16268;49.880;8.648;2023-04-24T11:21:44;3.75;;;2.05;;
29240;SDS011;16268;49.880;8.648;2023-04-24T11:24:24;3.72;;;1.90;;
29240;SDS011;16268;49.880;8.648;2023-04-24T11:27:11;4.15;;;2.20;;
29240;SDS011;16268;49.880;8.648;2023-04-24T11:32:14;7.68;;;3.03;;
29240;SDS011;16268;49.880;8.648;2023-04-24T11:34:48;5.57;;;2.80;;
29240;SDS011;16268;49.880;8.648;2023-04-24T11:37:15;5.63;;;3.13;;
29240;SDS011;16268;49.880;8.648;2023-04-24T11:39:41;4.47;;;2.70;;
29240;SDS011;16268;49.880;8.648;2023-04-24T11:42:08;5.18;;;3.08;;
29240;SDS011;16268;49.880;8.648;2023-04-24T11:44:34;4.97;;;2.72;;
29240;SDS011;16268;49.880;8.648;2023-04-24T11:47:03;6.85;;;3.13;;
29240;SDS011;16268;49.880;8.648;2023-04-24T11:49:29;5.03;;;2.92;;
29240;SDS011;16268;49.880;8.648;2023-04-24T11:51:55;5.57;;;3.00;;
29240;SDS011;16268;49.880;8.648;2023-04-24T11:54:21;5.35;;;2.95;;
29240;SDS011;16268;49.880;8.648;2023-04-24T11:56:47;4.95;;;2.47;;
29240;SDS011;16268;49.880;8.648;2023-04-24T11:59:14;6.20;;;3.00;;
29240;SDS011;16268;49.880;8.648;2023-04-24T12:01:43;5.78;;;2.40;;
29240;SDS011;16268;49.880;8.648;2023-04-24T12:04:12;3.95;;;2.10;;
29240;SDS011;16268;49.880;8.648;2023-04-24T12:06:38;4.03;;;2.20;;
29240;SDS011;16268;49.880;8.648;2023-04-24T12:09:04;4.07;;;2.10;;
29240;SDS011;16268;49.880;8.648;2023-04-24T12:11:30;3.03;;;1.85;;
29240;SDS011;16268;49.880;8.648;2023-04-24T12:13:55;3.85;;;1.90;;
29240;SDS011;16268;49.880;8.648;2023-04-24T12:16:21;4.60;;;2.03;;
29240;SDS011;16268;49.880;8.648;2023-04-24T12:18:47;4.35;;;2.20;;
29240;SDS011;16268;49.880;8.648;2023-04-24T12:21:19;4.18;;;1.88;;
29240;SDS011;16268;49.880;8.648;2023-04-24T12:23:50;4.65;;;1.83;;
29240;SDS011;16268;49.880;8.648;2023-04-24T12:26:16;3.90;;;1.90;;
29240;SDS011;16268;49.880;8.648;2023-04-24T12:28:45;4.05;;;2.00;;
29240;SDS011;16268;49.880;8.648;2023-04-24T12:31:12;4.18;;;1.90;;
29240;SDS011;16268;49.880;8.648;2023-04-24T12:33:37;5.93;;;2.28;;
29240;SDS011;16268;49.880;8.648;2023-04-24T12:36:05;5.70;;;2.60;;
29240;SDS011;16268;49.880;8.648;2023-04-24T12:38:31;5.50;;;2.70;;
29240;SDS011;16268;49.880;8.648;2023-04-24T12:41:14;4.88;;;2.70;;
29240;SDS011;16268;49.880;8.648;2023-04-24T12:43:50;7.50;;;2.92;;
29240;SDS011;16268;49.880;8.648;2023-04-24T12:46:20;6.30;;;3.10;;
29240;SDS011;16268;49.880;8.648;2023-04-24T12:48:45;5.85;;;3.05;;
29240;SDS011;16268;49.880;8.648;2023-04-24T12:51:11;5.20;;;2.97;;
29240;SDS011;16268;49.880;8.648;2023-04-24T12:53:37;7.13;;;2.90;;
29240;SDS011;16268;49.880;8.648;2023-04-24T12:56:02;5.15;;;2.72;;
29240;SDS011;16268;49.880;8.648;2023-04-24T12:58:28;5.43;;;3.00;;
29240;SDS011;16268;49.880;8.648;2023-04-24T13:00:53;4.15;;;2.20;;
29240;SDS011;16268;49.880;8.648;2023-04-24T13:03:19;6.35;;;2.80;;
29240;SDS011;16268;49.880;8.648;2023-04-24T13:05:45;5.32;;;2.92;;
29240;SDS011;16268;49.880;8.648;2023-04-24T13:08:10;5.25;;;2.78;;
29240;SDS011;16268;49.880;8.648;2023-04-24T13:10:37;5.88;;;3.25;;
29240;SDS011;16268;49.880;8.648;2023-04-24T13:13:03;4.70;;;2.72;;
29240;SDS011;16268;49.880;8.648;2023-04-24T13:15:30;5.57;;;2.70;;
29240;SDS011;16268;49.880;8.648;2023-04-24T13:17:55;7.10;;;2.92;;
29240;SDS011;16268;49.880;8.648;2023-04-24T13:20:21;6.45;;;2.90;;
29240;SDS011;16268;49.880;8.648;2023-04-24T13:22:47;5.68;;;2.90;;
29240;SDS011;16268;49.880;8.648;2023-04-24T13:25:12;5.22;;;2.60;;
29240;SDS011;16268;49.880;8.648;2023-04-24T13:27:38;5.85;;;2.70;;
29240;SDS011;16268;49.880;8.648;2023-04-24T13:30:04;5.65;;;2.90;;
29240;SDS011;16268;49.880;8.648;2023-04-24T13:32:31;5.28;;;2.47;;
29240;SDS011;16268;49.880;8.648;2023-04-24T13:34:58;7.85;;;3.08;;
29240;SDS011;16268;49.880;8.648;2023-04-24T13:37:23;5.15;;;2.70;;
29240;SDS011;16268;49.880;8.648;2023-04-24T13:39:49;7.10;;;2.63;;
29240;SDS011;16268;49.880;8.648;2023-04-24T13:42:15;7.47;;;2.78;;
29240;SDS011;16268;49.880;8.648;2023-04-24T13:44:41;6.15;;;2.63;;
29240;SDS011;16268;49.880;8.648;2023-04-24T13:47:07;6.13;;;2.65;;
29240;SDS011;16268;49.880;8.648;2023-04-24T13:49:32;5.85;;;2.60;;
29240;SDS011;16268;49.880;8.648;2023-04-24T13:52:00;9.00;;;2.70;;
29240;SDS011;16268;49.880;8.648;2023-04-24T13:54:26;5.27;;;2.70;;
29240;SDS011;16268;49.880;8.648;2023-04-24T13:56:52;5.05;;;2.72;;
29240;SDS011;16268;49.880;8.648;2023-04-24T13:59:19;7.65;;;3.03;;
29240;SDS011;16268;49.880;8.648;2023-04-24T14:01:46;7.75;;;2.97;;
29240;SDS011;16268;49.880;8.648;2023-04-24T14:04:12;4.93;;;2.50;;
29240;SDS011;16268;49.880;8.648;2023-04-24T14:06:37;6.28;;;3.10;;
29240;SDS011;16268;49.880;8.648;2023-04-24T14:09:03;4.82;;;2.83;;
29240;SDS011;16268;49.880;8.648;2023-04-24T14:11:29;5.70;;;2.58;;
29240;SDS011;16268;49.880;8.648;2023-04-24T14:13:55;7.28;;;3.00;;
29240;SDS011;16268;49.880;8.648;2023-04-24T14:16:23;6.78;;;3.00;;
29240;SDS011;16268;49.880;8.648;2023-04-24T14:18:49;7.47;;;2.72;;
29240;SDS011;16268;49.880;8.648;2023-04-24T14:21:15;6.20;;;2.90;;
29240;SDS011;16268;49.880;8.648;2023-04-24T14:23:41;5.10;;;2.80;;
29240;SDS011;16268;49.880;8.648;2023-04-24T14:26:07;6.75;;;2.67;;
29240;SDS011;16268;49.880;8.648;2023-04-24T14:28:33;6.03;;;2.85;;
29240;SDS011;16268;49.880;8.648;2023-04-24T14:30:59;5.15;;;2.83;;
29240;SDS011;16268;49.880;8.648;2023-04-24T14:33:24;5.85;;;2.70;;
29240;SDS011;16268;49.880;8.648;2023-04-24T14:35:50;5.50;;;2.58;;
29240;SDS011;16268;49.880;8.648;2023-04-24T14:38:15;5.35;;;2.80;;
29240;SDS011;16268;49.880;8.648;2023-04-24T14:40:41;5.05;;;2.70;;
29240;SDS011;16268;49.880;8.648;2023-04-24T14:43:08;4.57;;;2.42;;
29240;SDS011;16268;49.880;8.648;2023-04-24T14:45:34;4.38;;;2.30;;
29240;SDS011;16268;49.880;8.648;2023-04-24T14:48:00;6.57;;;2.65;;
29240;SDS011;16268;49.880;8.648;2023-04-24T14:50:25;6.70;;;2.67;;
29240;SDS011;16268;49.880;8.648;2023-04-24T14:52:55;5.10;;;2.83;;
29240;SDS011;16268;49.880;8.648;2023-04-24T14:55:24;4.60;;;2.25;;
29240;SDS011;16268;49.880;8.648;2023-04-24T14:57:51;4.40;;;2.35;;
29240;SDS011;16268;49.880;8.648;2023-04-24T15:00:16;4.38;;;2.30;;
29240;SDS011;16268;49.880;8.648;2023-04-24T15:02:43;5.10;;;2.40;;
29240;SDS011;16268;49.880;8.648;2023-04-24T15:05:09;5.85;;;2.92;;